Time;durP1;ratioP1;P1;durP2;ratioP2;P2;SDS_P1;SDS_P2;PMS_P1;PMS_P2;Temp;Humidity;BMP_temperature;BMP_pressure;BME280_temperature;BME280_humidity;BME280_pressure;Samples;Min_cycle;Max_cycle;Signal;HPM_P1;HPM_P2
2022/02/01 00:02:34;;;;;;;20.33;13.97;;;2.30;99.90;;;;;;5069498;28;20816;-69
2022/02/01 00:05:08;;;;;;;27.37;13.87;;;2.30;99.90;;;;;;5059525;28;20968;-69
2022/02/01 00:07:43;;;;;;;18.57;15.10;;;2.30;99.90;;;;;;5065024;28;20973;-69
2022/02/01 00:10:16;;;;;;;24.17;15.40;;;2.20;99.90;;;;;;5066805;28;20469;-69
2022/02/01 00:12:53;;;;;;;15.83;14.33;;;2.20;99.90;;;;;;5065017;28;21085;-69
2022/02/01 00:15:54;;;;;;;30.77;14.17;;;2.10;99.90;;;;;;5067915;28;20466;-69
2022/02/01 00:34:52;;;;;;;15.20;13.73;;;2.10;99.90;;;;;;5059425;28;20548;-70
2022/02/01 00:37:22;;;;;;;21.37;14.60;;;2.10;99.90;;;;;;5066231;28;20543;-69
2022/02/01 00:39:56;;;;;;;23.90;14.57;;;2.00;99.90;;;;;;5066766;28;20671;-71
2022/02/01 00:42:23;;;;;;;15.90;13.40;;;2.00;99.90;;;;;;5063882;28;20495;-71
2022/02/01 00:44:51;;;;;;;16.07;13.77;;;2.00;99.90;;;;;;5068441;28;20466;-70
2022/02/01 00:47:19;;;;;;;18.53;14.50;;;2.10;99.90;;;;;;5066434;28;20470;-70
2022/02/01 00:49:48;;;;;;;21.53;15.27;;;2.00;99.90;;;;;;5064235;28;20465;-71
2022/02/01 00:52:15;;;;;;;16.40;14.67;;;2.00;99.90;;;;;;5066088;28;20466;-69
2022/02/01 00:54:42;;;;;;;19.80;15.03;;;2.10;99.90;;;;;;5066801;28;20805;-71
2022/02/01 00:57:11;;;;;;;17.70;13.90;;;2.10;99.90;;;;;;5066862;28;21066;-69
2022/02/01 00:59:39;;;;;;;15.40;13.83;;;2.10;99.90;;;;;;5068045;28;20476;-71
2022/02/01 01:02:06;;;;;;;25.47;14.50;;;2.20;99.90;;;;;;5066874;28;20458;-70
2022/02/01 01:04:34;;;;;;;19.83;14.30;;;2.10;99.90;;;;;;5066770;28;20837;-69
2022/02/01 01:07:02;;;;;;;21.83;14.50;;;2.10;99.90;;;;;;5065331;28;20459;-69
2022/02/01 01:09:29;;;;;;;17.80;15.37;;;2.20;99.90;;;;;;5063933;28;20482;-70
2022/02/01 01:11:58;;;;;;;23.20;18.03;;;2.20;99.90;;;;;;5068872;28;20467;-69
2022/02/01 01:17:43;;;;;;;19.47;15.33;;;2.20;99.90;;;;;;5062654;28;21011;-71
2022/02/01 01:44:52;;;;;;;15.93;14.27;;;2.50;99.90;;;;;;5066056;28;20546;-69
2022/02/01 01:55:43;;;;;;;18.10;14.60;;;2.60;99.90;;;;;;5053375;28;20454;-71
2022/02/01 01:58:11;;;;;;;17.60;14.60;;;2.60;99.90;;;;;;5062299;28;20868;-69
2022/02/01 02:03:26;;;;;;;16.10;14.00;;;2.60;99.90;;;;;;5067373;28;20540;-71
2022/02/01 02:05:53;;;;;;;15.33;14.00;;;2.60;99.90;;;;;;5069026;28;20568;-71
2022/02/01 02:08:23;;;;;;;14.93;13.80;;;2.70;99.90;;;;;;5069885;28;20591;-70
2022/02/01 02:10:57;;;;;;;19.13;14.87;;;2.60;99.90;;;;;;5069768;28;20474;-70
2022/02/01 02:16:08;;;;;;;29.00;14.13;;;2.70;99.90;;;;;;5069338;28;20462;-72
2022/02/01 02:18:37;;;;;;;15.30;14.00;;;2.60;99.90;;;;;;5069966;28;20515;-71
2022/02/01 02:21:06;;;;;;;16.13;14.60;;;2.60;99.90;;;;;;5072349;28;20488;-70
2022/02/01 02:23:33;;;;;;;22.80;14.60;;;2.50;99.90;;;;;;5071798;28;20469;-70
2022/02/01 02:26:06;;;;;;;22.73;15.40;;;2.50;99.90;;;;;;5069266;28;20467;-70
2022/02/01 02:28:34;;;;;;;18.70;15.73;;;2.60;99.90;;;;;;5066637;28;20462;-69
2022/02/01 02:31:02;;;;;;;17.10;14.53;;;2.70;99.90;;;;;;5068897;28;20558;-70
2022/02/01 02:33:29;;;;;;;23.33;14.80;;;2.60;99.90;;;;;;5070099;28;20475;-70
2022/02/01 02:36:03;;;;;;;16.70;14.40;;;2.60;99.90;;;;;;5070622;28;20463;-72
2022/02/01 02:38:36;;;;;;;22.13;15.63;;;2.70;99.90;;;;;;5068736;28;20459;-71
2022/02/01 02:46:31;;;;;;;16.53;14.67;;;2.70;99.90;;;;;;5067067;28;20481;-71
2022/02/01 02:48:59;;;;;;;15.17;13.77;;;2.70;99.90;;;;;;5069959;28;20470;-70
2022/02/01 02:51:26;;;;;;;26.50;14.30;;;2.80;99.90;;;;;;5069719;28;20467;-69
2022/02/01 02:53:54;;;;;;;22.50;14.60;;;2.70;99.90;;;;;;5068933;28;20546;-69
2022/02/01 02:56:23;;;;;;;18.63;17.17;;;2.80;99.90;;;;;;5068844;28;20456;-71
2022/02/01 02:58:53;;;;;;;30.17;15.47;;;2.80;99.90;;;;;;5064856;28;20471;-70
2022/02/01 03:01:20;;;;;;;21.27;14.90;;;2.90;99.90;;;;;;5068541;28;20618;-70
2022/02/01 03:03:47;;;;;;;19.53;15.13;;;2.90;99.90;;;;;;5068550;28;20455;-70
2022/02/01 03:06:14;;;;;;;23.53;14.60;;;2.80;99.90;;;;;;5067073;28;20905;-72
2022/02/01 03:08:41;;;;;;;18.23;14.07;;;2.90;99.90;;;;;;5067304;28;20475;-72
2022/02/01 03:11:13;;;;;;;17.23;14.57;;;2.90;99.90;;;;;;5059909;28;20856;-70
2022/02/01 03:13:42;;;;;;;19.83;15.50;;;2.80;99.90;;;;;;5069937;28;20458;-70
2022/02/01 03:16:14;;;;;;;15.93;14.30;;;2.90;99.90;;;;;;5068982;28;20455;-71
2022/02/01 03:21:25;;;;;;;17.40;15.00;;;3.00;99.90;;;;;;5064928;28;20963;-71
2022/02/01 03:23:52;;;;;;;19.00;14.33;;;2.90;99.90;;;;;;5068423;28;20463;-69
2022/02/01 03:26:20;;;;;;;17.20;14.63;;;2.90;99.90;;;;;;5068505;28;20455;-72
2022/02/01 03:28:47;;;;;;;23.17;14.90;;;2.90;99.90;;;;;;5069395;28;20459;-72
2022/02/01 03:31:14;;;;;;;19.93;14.57;;;2.90;99.90;;;;;;5068518;28;20467;-72
2022/02/01 03:33:41;;;;;;;20.13;15.03;;;3.00;99.90;;;;;;5065225;28;20481;-72
2022/02/01 03:36:08;;;;;;;16.13;14.73;;;3.00;99.90;;;;;;5064715;28;20460;-72
2022/02/01 03:38:35;;;;;;;17.43;13.87;;;3.00;99.90;;;;;;5067719;28;20604;-70
2022/02/01 03:41:03;;;;;;;17.47;14.10;;;3.10;99.90;;;;;;5069660;28;20462;-72
2022/02/01 03:43:32;;;;;;;21.23;14.00;;;3.10;99.90;;;;;;5060876;28;20478;-72
2022/02/01 03:45:59;;;;;;;16.43;14.80;;;3.10;99.90;;;;;;5069754;28;20463;-72
2022/02/01 03:48:27;;;;;;;16.70;14.40;;;3.10;99.90;;;;;;5067195;28;20957;-71
2022/02/01 03:50:54;;;;;;;14.57;12.87;;;3.10;99.90;;;;;;5065672;28;20463;-69
2022/02/01 03:53:22;;;;;;;16.20;14.70;;;3.10;99.90;;;;;;5067877;28;20463;-70
2022/02/01 03:55:49;;;;;;;15.47;13.97;;;3.10;99.90;;;;;;5067722;28;20490;-71
2022/02/01 03:58:15;;;;;;;22.80;14.23;;;3.10;99.90;;;;;;5069433;28;20497;-71
2022/02/01 04:00:44;;;;;;;23.47;14.70;;;3.10;99.90;;;;;;5067567;28;20458;-69
2022/02/01 04:03:11;;;;;;;24.37;17.03;;;3.10;99.90;;;;;;5065728;28;20466;-71
2022/02/01 04:05:37;;;;;;;21.33;14.13;;;3.10;99.90;;;;;;5067598;28;20485;-70
2022/02/01 04:08:05;;;;;;;19.40;14.30;;;3.10;99.90;;;;;;5066288;28;20490;-69
2022/02/01 04:10:32;;;;;;;17.77;13.90;;;3.10;99.90;;;;;;5065853;28;20471;-70
2022/02/01 04:12:59;;;;;;;18.17;13.27;;;3.20;99.90;;;;;;5068821;28;20466;-70
2022/02/01 04:15:27;;;;;;;20.93;14.80;;;3.20;99.90;;;;;;5066386;28;20463;-71
2022/02/01 04:17:56;;;;;;;14.23;13.23;;;3.20;99.90;;;;;;5067671;28;20856;-69
2022/02/01 04:20:24;;;;;;;24.87;14.60;;;3.20;99.90;;;;;;5067531;28;20485;-69
2022/02/01 04:22:52;;;;;;;15.77;14.27;;;3.30;99.90;;;;;;5064858;28;20459;-70
2022/02/01 04:25:19;;;;;;;15.90;14.47;;;3.30;99.90;;;;;;5063688;28;20462;-72
2022/02/01 04:27:46;;;;;;;21.93;14.20;;;3.40;99.90;;;;;;5066839;28;20482;-70
2022/02/01 04:30:15;;;;;;;15.17;13.80;;;3.40;99.90;;;;;;5064683;28;20495;-71
2022/02/01 04:32:44;;;;;;;15.50;13.97;;;3.50;99.90;;;;;;5065215;28;20459;-72
2022/02/01 04:35:15;;;;;;;15.50;13.83;;;3.40;99.90;;;;;;5067027;28;20462;-72
2022/02/01 04:37:42;;;;;;;17.70;13.53;;;3.40;99.90;;;;;;5067655;28;20479;-69
2022/02/01 04:40:11;;;;;;;16.80;14.93;;;3.40;99.90;;;;;;5068240;28;20477;-70
2022/02/01 04:42:40;;;;;;;17.87;14.40;;;3.50;99.90;;;;;;5063531;28;20491;-71
2022/02/01 04:45:10;;;;;;;18.93;14.77;;;3.60;99.90;;;;;;5067426;28;20463;-72
2022/02/01 04:47:38;;;;;;;20.27;15.10;;;3.50;99.90;;;;;;5066782;28;20461;-69
2022/02/01 04:50:11;;;;;;;19.57;14.47;;;3.50;99.90;;;;;;5066721;28;20962;-70
2022/02/01 04:52:40;;;;;;;18.43;14.03;;;3.60;99.90;;;;;;5068742;28;20489;-71
2022/02/01 04:55:09;;;;;;;18.30;13.90;;;3.50;99.90;;;;;;5066753;28;20469;-71
2022/02/01 04:57:40;;;;;;;17.37;15.77;;;3.50;99.90;;;;;;5066478;28;20516;-69
2022/02/01 05:00:10;;;;;;;16.57;14.90;;;3.60;99.90;;;;;;5061735;28;20983;-72
2022/02/01 05:02:37;;;;;;;19.90;15.40;;;3.50;99.90;;;;;;5042947;28;20459;-71
2022/02/01 05:05:04;;;;;;;18.13;15.10;;;3.50;99.90;;;;;;5039945;28;20847;-70
2022/02/01 05:07:31;;;;;;;15.40;14.10;;;3.60;99.90;;;;;;5040147;28;20466;-69
2022/02/01 05:09:59;;;;;;;16.90;15.43;;;3.50;99.90;;;;;;5040390;28;20470;-69
2022/02/01 05:12:33;;;;;;;16.00;14.60;;;3.50;99.90;;;;;;5041669;28;20517;-70
2022/02/01 05:15:05;;;;;;;21.47;14.97;;;3.50;99.90;;;;;;5041473;28;20968;-72
2022/02/01 05:17:34;;;;;;;19.27;15.20;;;3.50;99.90;;;;;;5041177;28;21032;-70
2022/02/01 05:20:11;;;;;;;15.97;14.73;;;3.50;99.90;;;;;;5041402;28;20959;-71
2022/02/01 05:22:41;;;;;;;16.00;14.63;;;3.50;99.90;;;;;;5042274;28;20474;-70
2022/02/01 05:25:09;;;;;;;21.20;15.67;;;3.50;99.90;;;;;;5041463;28;20490;-71
2022/02/01 05:27:38;;;;;;;21.17;14.67;;;3.50;99.90;;;;;;5040995;28;20474;-72
2022/02/01 05:30:07;;;;;;;17.03;15.43;;;3.50;99.90;;;;;;5038630;28;21209;-71
2022/02/01 05:32:34;;;;;;;26.10;16.30;;;3.50;99.90;;;;;;5041555;28;20462;-69
2022/02/01 05:35:01;;;;;;;15.63;14.00;;;3.50;99.90;;;;;;5042206;28;20455;-72
2022/02/01 05:37:28;;;;;;;16.97;15.00;;;3.40;99.90;;;;;;5042194;28;21251;-70
2022/02/01 05:39:57;;;;;;;17.33;15.30;;;3.50;99.90;;;;;;5045224;28;20474;-70
2022/02/01 05:42:36;;;;;;;17.07;15.00;;;3.40;99.90;;;;;;5044757;28;20898;-72
2022/02/01 05:45:03;;;;;;;20.17;15.93;;;3.40;99.90;;;;;;5045386;28;20507;-72
2022/02/01 05:47:30;;;;;;;20.23;15.33;;;3.50;99.90;;;;;;5044773;28;20486;-71
2022/02/01 05:49:57;;;;;;;17.13;15.60;;;3.50;99.90;;;;;;5045861;28;20830;-71
2022/02/01 05:52:23;;;;;;;16.20;14.80;;;3.50;99.90;;;;;;5044458;28;20881;-70
2022/02/01 05:54:50;;;;;;;16.57;15.30;;;3.50;99.90;;;;;;5044681;28;20490;-71
2022/02/01 05:57:18;;;;;;;23.63;16.80;;;3.40;99.90;;;;;;5044932;28;20820;-71
2022/02/01 05:59:46;;;;;;;17.00;15.43;;;3.50;99.90;;;;;;5044479;28;20467;-72
2022/02/01 06:02:14;;;;;;;15.67;14.47;;;3.50;99.90;;;;;;5044047;28;20949;-72
2022/02/01 06:04:41;;;;;;;16.77;15.10;;;3.40;99.90;;;;;;5044942;28;20482;-71
2022/02/01 06:07:07;;;;;;;17.00;15.60;;;3.40;99.90;;;;;;5044770;28;20450;-70
2022/02/01 06:09:34;;;;;;;17.10;14.73;;;3.40;99.90;;;;;;5044554;28;20482;-72
2022/02/01 06:12:01;;;;;;;16.40;14.90;;;3.40;99.90;;;;;;5043751;28;20454;-71
2022/02/01 06:14:28;;;;;;;25.20;15.60;;;3.40;99.90;;;;;;5043093;28;20709;-71
2022/02/01 06:16:57;;;;;;;17.73;15.30;;;3.40;99.90;;;;;;5044887;28;20454;-72
2022/02/01 06:19:24;;;;;;;19.27;17.00;;;3.30;99.90;;;;;;5044596;28;21159;-72
2022/02/01 06:21:51;;;;;;;17.57;15.80;;;3.40;99.90;;;;;;5045008;28;20677;-70
2022/02/01 06:24:20;;;;;;;22.40;17.50;;;3.40;99.90;;;;;;5044997;28;20459;-71
2022/02/01 06:26:47;;;;;;;23.53;16.77;;;3.30;99.90;;;;;;5043805;28;20497;-71
2022/02/01 06:29:13;;;;;;;16.47;14.87;;;3.40;99.90;;;;;;5044750;28;20455;-70
2022/02/01 06:31:40;;;;;;;17.43;15.93;;;3.40;99.90;;;;;;5044158;28;20837;-72
2022/02/01 06:34:09;;;;;;;16.63;15.00;;;3.40;99.90;;;;;;5044910;28;20470;-69
2022/02/01 06:36:35;;;;;;;21.00;15.90;;;3.40;99.90;;;;;;5044467;28;21325;-70
2022/02/01 06:39:03;;;;;;;21.83;15.57;;;3.40;99.90;;;;;;5044171;28;20486;-70
2022/02/01 06:41:30;;;;;;;15.80;14.47;;;3.50;99.90;;;;;;5044249;28;21174;-69
2022/02/01 06:43:57;;;;;;;18.43;16.27;;;3.60;99.90;;;;;;5043725;28;20993;-72
2022/02/01 06:46:24;;;;;;;17.40;15.60;;;3.60;99.90;;;;;;5044399;28;20455;-69
2022/02/01 06:48:51;;;;;;;16.73;15.30;;;3.60;99.90;;;;;;5043995;28;20463;-69
2022/02/01 06:51:20;;;;;;;18.97;15.30;;;3.70;99.90;;;;;;5042260;28;20474;-70
2022/02/01 06:53:47;;;;;;;16.67;15.10;;;3.70;99.90;;;;;;5055192;28;20467;-72
2022/02/01 06:56:19;;;;;;;25.10;17.10;;;3.60;99.90;;;;;;5054379;28;20520;-72
2022/02/01 06:58:46;;;;;;;19.23;16.07;;;3.60;99.90;;;;;;5029956;28;20920;-72
2022/02/01 07:01:13;;;;;;;22.40;16.00;;;3.60;99.90;;;;;;5035111;28;20507;-70
2022/02/01 07:03:40;;;;;;;24.87;16.37;;;3.70;99.90;;;;;;5036981;28;20467;-70
2022/02/01 07:06:12;;;;;;;23.03;17.00;;;3.70;99.90;;;;;;5038016;28;20463;-70
2022/02/01 07:08:43;;;;;;;20.40;15.70;;;3.70;99.90;;;;;;5041707;28;20494;-70
2022/02/01 07:11:10;;;;;;;17.63;16.13;;;3.80;99.90;;;;;;5061356;28;20471;-70
2022/02/01 07:13:37;;;;;;;30.63;15.60;;;3.80;99.90;;;;;;5063929;28;20899;-72
2022/02/01 07:16:05;;;;;;;17.47;15.33;;;3.80;99.90;;;;;;5063665;28;20961;-71
2022/02/01 07:18:32;;;;;;;17.30;15.50;;;3.80;99.90;;;;;;5050572;28;20490;-70
2022/02/01 07:20:59;;;;;;;23.37;14.50;;;3.90;99.90;;;;;;5037986;28;20463;-72
2022/02/01 07:23:26;;;;;;;24.30;15.70;;;3.90;99.90;;;;;;5038345;28;20471;-71
2022/02/01 07:25:56;;;;;;;21.73;15.80;;;3.90;99.90;;;;;;5037322;28;21303;-71
2022/02/01 07:28:26;;;;;;;16.00;14.47;;;3.90;99.90;;;;;;5035255;28;20463;-70
2022/02/01 07:30:53;;;;;;;17.93;15.17;;;3.90;99.90;;;;;;5035549;28;20463;-70
2022/02/01 07:33:20;;;;;;;17.97;15.00;;;3.90;99.90;;;;;;5036877;28;20467;-71
2022/02/01 07:35:48;;;;;;;16.90;15.33;;;3.90;99.90;;;;;;5035283;28;21113;-72
2022/02/01 07:38:18;;;;;;;19.23;16.23;;;3.80;99.90;;;;;;5034044;28;20879;-71
2022/02/01 07:40:46;;;;;;;18.60;15.90;;;3.80;99.90;;;;;;5036526;28;21015;-70
2022/02/01 07:43:15;;;;;;;19.87;16.57;;;3.90;99.90;;;;;;5035076;28;20486;-71
2022/02/01 07:45:43;;;;;;;22.13;16.90;;;4.00;99.90;;;;;;5036346;28;20459;-71
2022/02/01 07:48:10;;;;;;;19.70;17.33;;;4.00;99.90;;;;;;5036190;28;21046;-72
2022/02/01 07:50:39;;;;;;;20.10;18.10;;;4.00;99.90;;;;;;5037298;28;20462;-70
2022/02/01 07:53:07;;;;;;;18.60;16.87;;;4.10;99.90;;;;;;5035361;28;20478;-69
2022/02/01 07:55:34;;;;;;;20.13;17.97;;;4.10;99.90;;;;;;5036568;28;20475;-70
2022/02/01 07:58:01;;;;;;;29.17;20.07;;;4.00;99.90;;;;;;5035183;28;20497;-71
2022/02/01 08:00:29;;;;;;;32.23;20.43;;;4.10;99.90;;;;;;5036226;28;21331;-71
2022/02/01 08:02:56;;;;;;;33.00;22.60;;;4.10;99.90;;;;;;5036135;28;20466;-70
2022/02/01 08:05:25;;;;;;;29.00;21.90;;;4.10;99.90;;;;;;5035757;28;20463;-70
2022/02/01 08:07:52;;;;;;;26.13;23.70;;;4.10;99.90;;;;;;5035785;28;20489;-69
2022/02/01 08:10:20;;;;;;;38.27;26.57;;;4.00;99.90;;;;;;5034307;28;20467;-70
2022/02/01 08:18:28;;;;;;;41.33;34.93;;;3.90;99.90;;;;;;5044693;28;20485;-70
2022/02/01 08:20:57;;;;;;;41.87;33.43;;;4.00;99.90;;;;;;5046661;28;21610;-69
2022/02/01 08:23:24;;;;;;;28.00;26.20;;;4.00;99.90;;;;;;5035147;28;20463;-71
2022/02/01 08:25:52;;;;;;;28.50;26.70;;;4.00;99.90;;;;;;5036427;28;20471;-71
2022/02/01 08:28:19;;;;;;;28.37;26.57;;;4.00;99.90;;;;;;5036948;28;20454;-71
2022/02/01 08:30:50;;;;;;;29.17;27.33;;;4.00;99.90;;;;;;5036420;28;21867;-71
2022/02/01 08:33:17;;;;;;;38.03;33.87;;;4.10;99.90;;;;;;5036673;28;21449;-71
2022/02/01 08:35:43;;;;;;;40.57;36.30;;;3.90;99.90;;;;;;5056569;28;20502;-70
2022/02/01 08:38:10;;;;;;;47.10;37.10;;;4.00;99.90;;;;;;5063589;28;20483;-71
2022/02/01 08:40:37;;;;;;;48.40;38.90;;;4.10;99.90;;;;;;5058188;28;20455;-71
2022/02/01 08:43:04;;;;;;;47.57;38.23;;;4.10;99.90;;;;;;5036822;28;20486;-70
2022/02/01 08:45:31;;;;;;;39.17;35.03;;;4.00;99.90;;;;;;5033108;28;20468;-71
2022/02/01 08:48:00;;;;;;;46.33;36.50;;;4.00;99.90;;;;;;5035987;28;20494;-71
2022/02/01 08:50:31;;;;;;;52.97;36.40;;;4.00;99.90;;;;;;5036141;28;20470;-71
2022/02/01 08:53:09;;;;;;;38.07;34.27;;;4.00;99.90;;;;;;5032375;28;20893;-71
2022/02/01 08:55:39;;;;;;;47.93;36.50;;;4.10;99.90;;;;;;5034110;28;20454;-71
2022/02/01 08:58:07;;;;;;;43.53;36.30;;;4.10;99.90;;;;;;5036572;28;20475;-71
2022/02/01 09:00:35;;;;;;;45.90;37.50;;;4.20;99.90;;;;;;5035944;28;21372;-71
2022/02/01 09:03:06;;;;;;;36.50;32.37;;;4.20;99.90;;;;;;5035439;28;20544;-71
2022/02/01 09:05:33;;;;;;;37.07;33.87;;;4.20;99.90;;;;;;5034324;28;20559;-71
2022/02/01 09:08:02;;;;;;;41.53;35.73;;;4.20;99.90;;;;;;5035368;28;21153;-71
2022/02/01 09:10:29;;;;;;;38.07;34.67;;;4.20;99.90;;;;;;5035071;28;20494;-71
2022/02/01 09:12:55;;;;;;;35.63;32.00;;;4.20;99.90;;;;;;5037886;28;20466;-71
2022/02/01 09:15:24;;;;;;;38.40;34.70;;;4.20;99.90;;;;;;5040177;28;21273;-72
2022/02/01 09:17:51;;;;;;;38.50;33.90;;;4.30;99.90;;;;;;5039840;28;20476;-72
2022/02/01 09:20:20;;;;;;;34.60;31.70;;;4.40;99.90;;;;;;5038796;28;20494;-71
2022/02/01 09:22:47;;;;;;;35.00;32.13;;;4.30;99.90;;;;;;5038297;28;20458;-71
2022/02/01 09:25:17;;;;;;;35.33;31.90;;;4.40;99.90;;;;;;5038397;28;21039;-71
2022/02/01 09:27:44;;;;;;;35.43;32.43;;;4.40;99.90;;;;;;5039711;28;20514;-71
2022/02/01 09:30:11;;;;;;;32.90;30.00;;;4.40;99.90;;;;;;5040889;28;20467;-71
2022/02/01 09:32:38;;;;;;;33.60;30.40;;;4.50;99.90;;;;;;5040177;28;20463;-71
2022/02/01 09:35:05;;;;;;;34.23;31.10;;;4.60;99.90;;;;;;5039054;28;20460;-73
2022/02/01 09:37:33;;;;;;;32.47;29.87;;;4.50;99.90;;;;;;5039064;28;20893;-72
2022/02/01 09:40:00;;;;;;;32.20;29.50;;;4.50;99.90;;;;;;5039241;28;20493;-73
2022/02/01 09:42:27;;;;;;;32.63;30.07;;;4.50;99.90;;;;;;5038816;28;21075;-72
2022/02/01 09:44:55;;;;;;;32.90;30.13;;;4.60;99.90;;;;;;5038996;28;21228;-73
2022/02/01 09:47:32;;;;;;;33.53;30.73;;;4.70;99.90;;;;;;5038249;28;21001;-73
2022/02/01 09:49:59;;;;;;;33.10;30.17;;;4.70;99.90;;;;;;5039237;28;20465;-73
2022/02/01 09:52:26;;;;;;;31.93;29.37;;;4.80;99.90;;;;;;5039875;28;20481;-72
2022/02/01 09:54:55;;;;;;;31.07;27.80;;;4.80;99.90;;;;;;5039887;28;20467;-73
2022/02/01 09:57:22;;;;;;;31.70;29.13;;;4.80;99.90;;;;;;5039621;28;20552;-73
2022/02/01 09:59:54;;;;;;;32.40;30.00;;;4.90;99.90;;;;;;5039306;28;21174;-73
2022/02/01 10:02:21;;;;;;;32.87;29.90;;;4.90;99.90;;;;;;5038924;28;20550;-72
2022/02/01 10:04:50;;;;;;;32.10;29.60;;;4.90;99.90;;;;;;5039519;28;20466;-72
2022/02/01 10:07:18;;;;;;;32.63;30.13;;;5.00;99.90;;;;;;5038912;28;20451;-72
2022/02/01 10:09:52;;;;;;;31.97;29.57;;;5.00;99.90;;;;;;5038802;28;20483;-72
2022/02/01 10:12:22;;;;;;;32.60;30.00;;;5.00;99.90;;;;;;5038631;28;20942;-72
2022/02/01 10:15:04;;;;;;;33.30;30.50;;;4.90;99.90;;;;;;5039450;28;20545;-72
2022/02/01 10:17:40;;;;;;;31.90;29.43;;;5.10;99.90;;;;;;5038973;28;21010;-71
2022/02/01 10:20:08;;;;;;;29.57;27.17;;;5.10;99.90;;;;;;5036135;28;20490;-72
2022/02/01 10:22:37;;;;;;;29.93;27.80;;;5.10;99.90;;;;;;5038118;28;21056;-72
2022/02/01 10:25:06;;;;;;;30.57;27.77;;;5.10;99.90;;;;;;5035557;28;20550;-72
2022/02/01 10:27:38;;;;;;;28.03;26.00;;;5.10;99.90;;;;;;5037375;28;21023;-72
2022/02/01 10:30:10;;;;;;;32.00;29.40;;;5.10;99.90;;;;;;5037148;28;20482;-72
2022/02/01 10:33:05;;;;;;;31.83;29.47;;;5.20;99.90;;;;;;5037238;28;20503;-71
2022/02/01 10:35:48;;;;;;;30.90;28.20;;;5.30;99.90;;;;;;5037765;28;20463;-72
2022/02/01 10:38:17;;;;;;;29.83;27.50;;;5.30;99.90;;;;;;5037298;28;20467;-72
2022/02/01 10:40:46;;;;;;;28.50;26.40;;;5.30;99.90;;;;;;5037512;28;20816;-72
2022/02/01 10:43:19;;;;;;;29.57;27.03;;;5.30;99.90;;;;;;5038157;28;21023;-71
2022/02/01 10:45:47;;;;;;;27.63;25.70;;;5.40;99.90;;;;;;5037165;28;20460;-72
2022/02/01 10:48:15;;;;;;;30.47;28.07;;;5.40;99.90;;;;;;5038202;28;21434;-71
2022/02/01 10:50:43;;;;;;;26.97;25.17;;;5.50;99.90;;;;;;5031305;28;20455;-71
2022/02/01 10:53:19;;;;;;;28.27;25.83;;;5.50;99.90;;;;;;5037225;28;21044;-70
2022/02/01 10:55:47;;;;;;;26.50;24.73;;;5.60;99.90;;;;;;5038178;28;21071;-71
2022/02/01 10:58:15;;;;;;;29.03;27.00;;;5.60;99.90;;;;;;5037374;28;20467;-72
2022/02/01 11:00:46;;;;;;;28.97;26.87;;;5.70;99.90;;;;;;5037220;28;20504;-71
2022/02/01 11:03:15;;;;;;;28.20;26.20;;;5.70;99.90;;;;;;5038018;28;20479;-71
2022/02/01 11:05:46;;;;;;;29.13;27.03;;;5.70;99.90;;;;;;5037646;28;20482;-72
2022/02/01 11:08:15;;;;;;;28.90;26.57;;;5.70;99.90;;;;;;5037545;28;20481;-71
2022/02/01 11:10:46;;;;;;;26.97;24.87;;;5.70;99.90;;;;;;5055707;28;20471;-71
2022/02/01 11:13:13;;;;;;;29.10;26.97;;;5.70;99.90;;;;;;5058598;28;20809;-71
2022/02/01 11:15:54;;;;;;;30.23;27.83;;;5.70;99.90;;;;;;5037504;28;20535;-72
2022/02/01 11:18:26;;;;;;;25.90;24.13;;;5.80;99.90;;;;;;5036022;28;20470;-70
2022/02/01 11:20:53;;;;;;;28.27;26.17;;;5.80;99.90;;;;;;5037614;28;20954;-71
2022/02/01 11:23:21;;;;;;;29.13;26.83;;;5.80;99.90;;;;;;5036721;28;20494;-72
2022/02/01 11:25:53;;;;;;;30.03;27.80;;;5.90;99.90;;;;;;5038346;28;20463;-71
2022/02/01 11:28:38;;;;;;;28.30;26.17;;;6.00;99.90;;;;;;5037032;28;20470;-71
2022/02/01 11:31:05;;;;;;;28.70;26.60;;;6.00;99.90;;;;;;5037195;28;20580;-71
2022/02/01 11:33:41;;;;;;;28.90;26.80;;;6.00;99.90;;;;;;5037772;28;20477;-71
2022/02/01 11:36:10;;;;;;;28.83;26.73;;;6.00;99.90;;;;;;5036294;28;20464;-72
2022/02/01 11:38:37;;;;;;;28.83;26.60;;;6.00;99.90;;;;;;5036763;28;20930;-73
2022/02/01 11:41:07;;;;;;;29.50;27.40;;;6.00;99.90;;;;;;5036516;28;20497;-73
2022/02/01 11:43:36;;;;;;;29.03;26.93;;;6.00;99.90;;;;;;5037761;28;20973;-72
2022/02/01 11:46:07;;;;;;;26.60;25.00;;;6.00;99.90;;;;;;5037697;28;20562;-72
2022/02/01 11:48:38;;;;;;;29.93;27.63;;;6.00;99.90;;;;;;5035821;28;20562;-73
2022/02/01 11:51:09;;;;;;;29.73;27.53;;;6.00;99.90;;;;;;5036896;28;20475;-73
2022/02/01 11:53:40;;;;;;;28.67;26.73;;;6.10;99.90;;;;;;5037240;28;20463;-71
2022/02/01 11:56:08;;;;;;;29.10;27.03;;;6.10;99.90;;;;;;5037539;28;21030;-72
2022/02/01 11:58:37;;;;;;;29.67;27.43;;;6.20;99.90;;;;;;5037045;28;20950;-74
2022/02/01 12:01:20;;;;;;;29.07;27.20;;;6.30;99.90;;;;;;5037101;28;20494;-75
2022/02/01 12:03:47;;;;;;;26.83;24.83;;;6.20;99.90;;;;;;5037325;28;20513;-75
2022/02/01 12:06:21;;;;;;;27.40;25.67;;;6.30;99.90;;;;;;5036036;28;20897;-72
2022/02/01 12:08:49;;;;;;;26.93;25.20;;;6.30;99.90;;;;;;5036061;28;20495;-74
2022/02/01 12:11:17;;;;;;;27.70;25.90;;;6.40;99.90;;;;;;5035117;28;20542;-72
2022/02/01 12:13:43;;;;;;;28.03;26.23;;;6.40;99.90;;;;;;5036717;28;20891;-73
2022/02/01 12:16:12;;;;;;;26.90;25.20;;;6.50;99.90;;;;;;5037174;28;20478;-74
2022/02/01 12:18:50;;;;;;;26.77;25.00;;;6.40;99.90;;;;;;5036549;28;20495;-72
2022/02/01 12:21:29;;;;;;;27.13;25.40;;;6.40;99.90;;;;;;5035424;28;20494;-72
2022/02/01 12:23:58;;;;;;;26.80;25.10;;;6.40;99.90;;;;;;5037559;28;20472;-74
2022/02/01 12:26:27;;;;;;;25.97;24.47;;;6.50;99.90;;;;;;5037358;28;21992;-73
2022/02/01 12:28:56;;;;;;;25.87;24.30;;;6.50;99.90;;;;;;5036936;28;20452;-71
2022/02/01 12:31:24;;;;;;;26.47;24.87;;;6.60;99.90;;;;;;5036942;28;20470;-72
2022/02/01 12:33:54;;;;;;;26.20;24.60;;;6.50;99.90;;;;;;5037066;28;20467;-72
2022/02/01 12:36:38;;;;;;;25.67;24.07;;;6.50;99.90;;;;;;5035897;28;21070;-73
2022/02/01 12:39:13;;;;;;;24.20;22.80;;;6.50;99.90;;;;;;5033590;28;20491;-72
2022/02/01 12:41:50;;;;;;;24.60;23.20;;;6.50;99.90;;;;;;5035091;28;20521;-74
2022/02/01 12:47:05;;;;;;;25.77;23.70;;;6.60;99.90;;;;;;5036362;28;20500;-73
2022/02/01 12:49:35;;;;;;;24.87;23.37;;;6.60;99.90;;;;;;5035425;28;20470;-75
2022/02/01 12:52:04;;;;;;;25.10;23.60;;;6.60;99.90;;;;;;5035503;28;20469;-73
2022/02/01 12:54:33;;;;;;;26.50;24.90;;;6.60;99.90;;;;;;5035470;28;20481;-73
2022/02/01 12:57:09;;;;;;;25.20;23.70;;;6.60;99.90;;;;;;5036238;28;20765;-72
2022/02/01 12:59:44;;;;;;;26.27;24.67;;;6.70;99.90;;;;;;5034268;28;20496;-73
2022/02/01 13:02:13;;;;;;;25.30;23.80;;;6.70;99.90;;;;;;5034311;28;20902;-72
2022/02/01 13:04:40;;;;;;;24.97;23.47;;;6.70;99.90;;;;;;5035382;28;20459;-72
2022/02/01 13:07:19;;;;;;;26.10;24.50;;;6.70;99.90;;;;;;5057091;28;20481;-73
2022/02/01 13:15:26;;;;;;;27.77;25.33;;;6.70;99.90;;;;;;5033381;28;21192;-73
2022/02/01 13:18:14;;;;;;;25.23;23.53;;;6.70;99.90;;;;;;5035742;28;20464;-73
2022/02/01 13:20:42;;;;;;;26.50;24.77;;;6.70;99.90;;;;;;5034944;28;21306;-73
2022/02/01 13:23:11;;;;;;;25.33;23.80;;;6.80;99.90;;;;;;5033993;28;20452;-73
2022/02/01 13:25:40;;;;;;;24.93;23.43;;;6.70;99.90;;;;;;5035083;28;20931;-73
2022/02/01 13:28:10;;;;;;;23.83;22.43;;;6.80;99.90;;;;;;5034016;28;20467;-73
2022/02/01 13:30:37;;;;;;;24.23;22.93;;;6.80;99.90;;;;;;5034460;28;20479;-73
2022/02/01 13:33:07;;;;;;;25.17;23.53;;;6.80;99.90;;;;;;5035031;28;20469;-73
2022/02/01 13:35:43;;;;;;;25.13;23.70;;;6.80;99.90;;;;;;5033731;28;20487;-75
2022/02/01 13:38:12;;;;;;;25.50;23.90;;;6.80;99.90;;;;;;5035242;28;20460;-73
2022/02/01 13:40:40;;;;;;;26.20;24.60;;;6.80;99.90;;;;;;5035907;28;20500;-72
2022/02/01 13:43:14;;;;;;;26.90;25.10;;;6.80;99.90;;;;;;5034341;28;20486;-73
2022/02/01 13:45:41;;;;;;;25.57;23.97;;;6.90;99.90;;;;;;5035453;28;20462;-75
2022/02/01 13:48:11;;;;;;;27.30;25.60;;;6.90;99.90;;;;;;5040608;28;20579;-72
2022/02/01 13:50:39;;;;;;;25.57;23.97;;;7.00;99.90;;;;;;5057293;28;20525;-74
2022/02/01 13:53:08;;;;;;;26.53;24.83;;;7.00;99.90;;;;;;5056205;28;20852;-73
2022/02/01 13:55:40;;;;;;;26.83;25.13;;;7.00;99.90;;;;;;5059251;28;20482;-72
2022/02/01 13:58:08;;;;;;;26.27;24.67;;;7.00;99.90;;;;;;5036124;28;20518;-74
2022/02/01 14:00:39;;;;;;;27.10;25.40;;;7.10;99.90;;;;;;5037547;28;20490;-72
2022/02/01 14:03:15;;;;;;;25.90;24.30;;;7.10;99.90;;;;;;5039091;28;20521;-72
2022/02/01 14:05:43;;;;;;;26.27;24.27;;;7.10;99.90;;;;;;5037468;28;20455;-71
2022/02/01 14:08:34;;;;;;;27.47;25.67;;;7.10;99.90;;;;;;5039007;28;20525;-73